sensor_id;sensor_type;location;lat;lon;timestamp;P1;durP1;ratioP1;P2;durP2;ratioP2
47219;SDS011;32961;51.936;4.788;2023-12-07T00:01:11;13.10;;;8.55;;
47219;SDS011;32961;51.936;4.788;2023-12-07T00:03:40;15.15;;;8.65;;
47219;SDS011;32961;51.936;4.788;2023-12-07T00:06:08;14.98;;;8.68;;
47219;SDS011;32961;51.936;4.788;2023-12-07T00:08:37;16.27;;;8.90;;
47219;SDS011;32961;51.936;4.788;2023-12-07T00:11:05;17.92;;;9.32;;
47219;SDS011;32961;51.936;4.788;2023-12-07T00:13:33;21.00;;;9.55;;
47219;SDS011;32961;51.936;4.788;2023-12-07T00:16:01;19.42;;;9.50;;
47219;SDS011;32961;51.936;4.788;2023-12-07T00:18:29;19.08;;;9.93;;
47219;SDS011;32961;51.936;4.788;2023-12-07T00:20:57;16.60;;;9.77;;
47219;SDS011;32961;51.936;4.788;2023-12-07T00:23:25;13.10;;;9.27;;
47219;SDS011;32961;51.936;4.788;2023-12-07T00:25:54;18.23;;;9.68;;
47219;SDS011;32961;51.936;4.788;2023-12-07T00:28:22;15.95;;;9.38;;
47219;SDS011;32961;51.936;4.788;2023-12-07T00:30:50;16.98;;;8.52;;
47219;SDS011;32961;51.936;4.788;2023-12-07T00:33:18;13.90;;;7.85;;
47219;SDS011;32961;51.936;4.788;2023-12-07T00:35:48;16.05;;;8.65;;
47219;SDS011;32961;51.936;4.788;2023-12-07T00:38:16;14.65;;;8.32;;
47219;SDS011;32961;51.936;4.788;2023-12-07T00:40:44;16.77;;;8.77;;
47219;SDS011;32961;51.936;4.788;2023-12-07T00:43:13;14.48;;;9.05;;
47219;SDS011;32961;51.936;4.788;2023-12-07T00:45:41;17.60;;;8.05;;
47219;SDS011;32961;51.936;4.788;2023-12-07T00:48:09;13.10;;;7.80;;
47219;SDS011;32961;51.936;4.788;2023-12-07T00:50:37;14.27;;;7.85;;
47219;SDS011;32961;51.936;4.788;2023-12-07T00:53:05;18.65;;;8.00;;
47219;SDS011;32961;51.936;4.788;2023-12-07T00:55:33;15.00;;;7.88;;
47219;SDS011;32961;51.936;4.788;2023-12-07T00:58:01;19.13;;;9.25;;
47219;SDS011;32961;51.936;4.788;2023-12-07T01:00:30;16.02;;;7.80;;
47219;SDS011;32961;51.936;4.788;2023-12-07T01:02:58;15.80;;;7.82;;
47219;SDS011;32961;51.936;4.788;2023-12-07T01:05:26;13.27;;;7.80;;
47219;SDS011;32961;51.936;4.788;2023-12-07T01:07:54;12.48;;;7.38;;
47219;SDS011;32961;51.936;4.788;2023-12-07T01:10:22;16.73;;;7.95;;
47219;SDS011;32961;51.936;4.788;2023-12-07T01:12:50;13.35;;;7.55;;
47219;SDS011;32961;51.936;4.788;2023-12-07T01:15:18;14.93;;;8.05;;
47219;SDS011;32961;51.936;4.788;2023-12-07T01:17:47;11.88;;;7.32;;
47219;SDS011;32961;51.936;4.788;2023-12-07T01:20:15;13.60;;;7.13;;
47219;SDS011;32961;51.936;4.788;2023-12-07T01:22:43;15.57;;;8.18;;
47219;SDS011;32961;51.936;4.788;2023-12-07T01:25:12;12.35;;;7.45;;
47219;SDS011;32961;51.936;4.788;2023-12-07T01:27:43;16.65;;;8.90;;
47219;SDS011;32961;51.936;4.788;2023-12-07T01:30:11;15.63;;;6.70;;
47219;SDS011;32961;51.936;4.788;2023-12-07T01:32:39;12.25;;;7.10;;
47219;SDS011;32961;51.936;4.788;2023-12-07T01:35:08;15.93;;;7.07;;
47219;SDS011;32961;51.936;4.788;2023-12-07T01:37:36;11.23;;;6.80;;
47219;SDS011;32961;51.936;4.788;2023-12-07T01:40:05;10.45;;;6.82;;
47219;SDS011;32961;51.936;4.788;2023-12-07T01:42:37;10.80;;;6.63;;
47219;SDS011;32961;51.936;4.788;2023-12-07T01:45:05;13.63;;;7.30;;
47219;SDS011;32961;51.936;4.788;2023-12-07T01:47:35;18.85;;;10.30;;
47219;SDS011;32961;51.936;4.788;2023-12-07T01:50:04;11.25;;;6.93;;
47219;SDS011;32961;51.936;4.788;2023-12-07T01:52:35;10.85;;;6.40;;
47219;SDS011;32961;51.936;4.788;2023-12-07T01:55:10;11.70;;;6.70;;
47219;SDS011;32961;51.936;4.788;2023-12-07T01:57:39;14.07;;;6.78;;
47219;SDS011;32961;51.936;4.788;2023-12-07T02:00:09;9.02;;;6.15;;
47219;SDS011;32961;51.936;4.788;2023-12-07T02:02:37;10.57;;;6.38;;
47219;SDS011;32961;51.936;4.788;2023-12-07T02:05:06;15.73;;;6.60;;
47219;SDS011;32961;51.936;4.788;2023-12-07T02:07:36;12.88;;;6.35;;
47219;SDS011;32961;51.936;4.788;2023-12-07T02:10:04;11.32;;;6.97;;
47219;SDS011;32961;51.936;4.788;2023-12-07T02:12:33;10.38;;;6.55;;
47219;SDS011;32961;51.936;4.788;2023-12-07T02:15:01;12.10;;;6.75;;
47219;SDS011;32961;51.936;4.788;2023-12-07T02:17:32;9.85;;;6.75;;
47219;SDS011;32961;51.936;4.788;2023-12-07T02:20:05;14.77;;;7.90;;
47219;SDS011;32961;51.936;4.788;2023-12-07T02:22:41;11.30;;;7.80;;
47219;SDS011;32961;51.936;4.788;2023-12-07T02:25:15;14.60;;;8.38;;
47219;SDS011;32961;51.936;4.788;2023-12-07T02:27:47;16.90;;;7.88;;
47219;SDS011;32961;51.936;4.788;2023-12-07T02:30:15;13.30;;;7.88;;
47219;SDS011;32961;51.936;4.788;2023-12-07T02:32:43;10.32;;;7.78;;
47219;SDS011;32961;51.936;4.788;2023-12-07T02:35:12;11.20;;;8.10;;
47219;SDS011;32961;51.936;4.788;2023-12-07T02:37:42;14.60;;;7.85;;
47219;SDS011;32961;51.936;4.788;2023-12-07T02:40:12;16.55;;;8.90;;
47219;SDS011;32961;51.936;4.788;2023-12-07T02:42:41;19.63;;;9.55;;
47219;SDS011;32961;51.936;4.788;2023-12-07T02:45:11;15.15;;;8.88;;
47219;SDS011;32961;51.936;4.788;2023-12-07T02:47:40;14.43;;;8.35;;
47219;SDS011;32961;51.936;4.788;2023-12-07T02:50:10;15.93;;;8.63;;
47219;SDS011;32961;51.936;4.788;2023-12-07T02:52:38;20.90;;;9.20;;
47219;SDS011;32961;51.936;4.788;2023-12-07T02:55:07;16.00;;;8.45;;
47219;SDS011;32961;51.936;4.788;2023-12-07T02:57:35;18.05;;;8.50;;
47219;SDS011;32961;51.936;4.788;2023-12-07T03:00:04;13.07;;;9.00;;
47219;SDS011;32961;51.936;4.788;2023-12-07T03:02:35;16.48;;;9.07;;
47219;SDS011;32961;51.936;4.788;2023-12-07T03:05:04;13.88;;;9.35;;
47219;SDS011;32961;51.936;4.788;2023-12-07T03:07:32;23.65;;;9.18;;
47219;SDS011;32961;51.936;4.788;2023-12-07T03:10:01;15.27;;;9.32;;
47219;SDS011;32961;51.936;4.788;2023-12-07T03:12:30;18.67;;;9.35;;
47219;SDS011;32961;51.936;4.788;2023-12-07T03:14:58;15.25;;;9.00;;
47219;SDS011;32961;51.936;4.788;2023-12-07T03:17:26;15.88;;;9.10;;
47219;SDS011;32961;51.936;4.788;2023-12-07T03:19:55;17.42;;;9.98;;
47219;SDS011;32961;51.936;4.788;2023-12-07T03:22:23;23.30;;;9.73;;
47219;SDS011;32961;51.936;4.788;2023-12-07T03:24:52;15.52;;;9.63;;
47219;SDS011;32961;51.936;4.788;2023-12-07T03:27:20;17.60;;;8.75;;
47219;SDS011;32961;51.936;4.788;2023-12-07T03:29:48;18.38;;;9.57;;
47219;SDS011;32961;51.936;4.788;2023-12-07T03:32:17;15.25;;;9.57;;
47219;SDS011;32961;51.936;4.788;2023-12-07T03:34:45;19.30;;;10.20;;
47219;SDS011;32961;51.936;4.788;2023-12-07T03:37:14;17.05;;;10.15;;
47219;SDS011;32961;51.936;4.788;2023-12-07T03:39:42;20.60;;;10.68;;
47219;SDS011;32961;51.936;4.788;2023-12-07T03:42:10;25.38;;;10.15;;
47219;SDS011;32961;51.936;4.788;2023-12-07T03:44:58;20.95;;;10.82;;
47219;SDS011;32961;51.936;4.788;2023-12-07T03:47:26;17.88;;;10.63;;
47219;SDS011;32961;51.936;4.788;2023-12-07T03:49:54;26.83;;;14.50;;
47219;SDS011;32961;51.936;4.788;2023-12-07T03:52:24;38.75;;;19.35;;
47219;SDS011;32961;51.936;4.788;2023-12-07T03:54:52;22.05;;;12.98;;
47219;SDS011;32961;51.936;4.788;2023-12-07T03:57:20;21.55;;;11.52;;
47219;SDS011;32961;51.936;4.788;2023-12-07T03:59:48;52.78;;;16.52;;
47219;SDS011;32961;51.936;4.788;2023-12-07T04:02:15;41.38;;;13.80;;
47219;SDS011;32961;51.936;4.788;2023-12-07T04:04:43;34.75;;;15.43;;
47219;SDS011;32961;51.936;4.788;2023-12-07T04:07:11;23.40;;;13.35;;
47219;SDS011;32961;51.936;4.788;2023-12-07T04:09:40;39.28;;;12.88;;
47219;SDS011;32961;51.936;4.788;2023-12-07T04:12:08;49.33;;;12.18;;
47219;SDS011;32961;51.936;4.788;2023-12-07T04:14:36;53.42;;;14.00;;
47219;SDS011;32961;51.936;4.788;2023-12-07T04:17:04;71.65;;;14.25;;
47219;SDS011;32961;51.936;4.788;2023-12-07T04:19:32;153.55;;;23.10;;
47219;SDS011;32961;51.936;4.788;2023-12-07T04:21:59;178.40;;;22.58;;
47219;SDS011;32961;51.936;4.788;2023-12-07T04:24:27;51.55;;;19.00;;
47219;SDS011;32961;51.936;4.788;2023-12-07T04:26:56;140.00;;;20.83;;
47219;SDS011;32961;51.936;4.788;2023-12-07T04:29:27;199.90;;;23.55;;
47219;SDS011;32961;51.936;4.788;2023-12-07T04:31:55;110.82;;;20.38;;
47219;SDS011;32961;51.936;4.788;2023-12-07T04:34:23;111.90;;;20.60;;
47219;SDS011;32961;51.936;4.788;2023-12-07T04:36:51;182.48;;;23.38;;
47219;SDS011;32961;51.936;4.788;2023-12-07T04:39:19;188.23;;;25.33;;
47219;SDS011;32961;51.936;4.788;2023-12-07T04:41:47;205.35;;;23.90;;
47219;SDS011;32961;51.936;4.788;2023-12-07T04:44:16;283.95;;;25.27;;
47219;SDS011;32961;51.936;4.788;2023-12-07T04:46:45;254.70;;;22.67;;
47219;SDS011;32961;51.936;4.788;2023-12-07T04:49:13;181.43;;;21.77;;
47219;SDS011;32961;51.936;4.788;2023-12-07T04:51:41;194.20;;;20.67;;
47219;SDS011;32961;51.936;4.788;2023-12-07T04:54:12;148.90;;;20.25;;
47219;SDS011;32961;51.936;4.788;2023-12-07T04:56:45;247.60;;;22.98;;
47219;SDS011;32961;51.936;4.788;2023-12-07T04:59:13;150.23;;;19.92;;
47219;SDS011;32961;51.936;4.788;2023-12-07T05:01:42;239.05;;;24.27;;
47219;SDS011;32961;51.936;4.788;2023-12-07T05:04:10;228.63;;;22.80;;
47219;SDS011;32961;51.936;4.788;2023-12-07T05:06:38;203.30;;;22.13;;
47219;SDS011;32961;51.936;4.788;2023-12-07T05:09:06;237.13;;;21.33;;
47219;SDS011;32961;51.936;4.788;2023-12-07T05:11:35;309.17;;;22.80;;
47219;SDS011;32961;51.936;4.788;2023-12-07T05:14:04;285.60;;;22.00;;
47219;SDS011;32961;51.936;4.788;2023-12-07T05:16:32;186.48;;;19.35;;
47219;SDS011;32961;51.936;4.788;2023-12-07T05:19:01;147.65;;;21.05;;
47219;SDS011;32961;51.936;4.788;2023-12-07T05:21:30;239.48;;;19.75;;
47219;SDS011;32961;51.936;4.788;2023-12-07T05:23:57;255.18;;;19.52;;
47219;SDS011;32961;51.936;4.788;2023-12-07T05:26:25;152.00;;;20.42;;
47219;SDS011;32961;51.936;4.788;2023-12-07T05:28:53;159.25;;;19.05;;
47219;SDS011;32961;51.936;4.788;2023-12-07T05:31:21;205.38;;;19.13;;
47219;SDS011;32961;51.936;4.788;2023-12-07T05:33:49;69.40;;;17.23;;
47219;SDS011;32961;51.936;4.788;2023-12-07T05:36:18;169.45;;;18.80;;
47219;SDS011;32961;51.936;4.788;2023-12-07T05:38:46;185.25;;;19.05;;
47219;SDS011;32961;51.936;4.788;2023-12-07T05:41:14;195.50;;;17.73;;
47219;SDS011;32961;51.936;4.788;2023-12-07T05:43:42;235.32;;;17.42;;
47219;SDS011;32961;51.936;4.788;2023-12-07T05:46:10;224.73;;;22.92;;
47219;SDS011;32961;51.936;4.788;2023-12-07T05:48:38;274.15;;;17.40;;
47219;SDS011;32961;51.936;4.788;2023-12-07T05:51:06;277.40;;;16.98;;
47219;SDS011;32961;51.936;4.788;2023-12-07T05:53:41;175.40;;;19.38;;
47219;SDS011;32961;51.936;4.788;2023-12-07T05:56:09;253.32;;;16.65;;
47219;SDS011;32961;51.936;4.788;2023-12-07T05:58:38;82.97;;;15.02;;
47219;SDS011;32961;51.936;4.788;2023-12-07T06:01:06;163.75;;;17.60;;
47219;SDS011;32961;51.936;4.788;2023-12-07T06:03:34;190.07;;;16.15;;
47219;SDS011;32961;51.936;4.788;2023-12-07T06:06:03;144.77;;;16.98;;
47219;SDS011;32961;51.936;4.788;2023-12-07T06:08:32;228.00;;;17.45;;
47219;SDS011;32961;51.936;4.788;2023-12-07T06:11:02;103.07;;;14.73;;
47219;SDS011;32961;51.936;4.788;2023-12-07T06:13:32;200.65;;;17.52;;
47219;SDS011;32961;51.936;4.788;2023-12-07T06:16:01;292.08;;;17.88;;
47219;SDS011;32961;51.936;4.788;2023-12-07T06:18:29;233.65;;;18.65;;
47219;SDS011;32961;51.936;4.788;2023-12-07T06:20:57;165.88;;;17.25;;
47219;SDS011;32961;51.936;4.788;2023-12-07T06:23:25;167.57;;;16.70;;
47219;SDS011;32961;51.936;4.788;2023-12-07T06:25:55;143.38;;;16.13;;
47219;SDS011;32961;51.936;4.788;2023-12-07T06:28:24;192.70;;;16.13;;
47219;SDS011;32961;51.936;4.788;2023-12-07T06:30:53;95.22;;;14.52;;
47219;SDS011;32961;51.936;4.788;2023-12-07T06:33:23;107.70;;;14.85;;
47219;SDS011;32961;51.936;4.788;2023-12-07T06:35:51;131.45;;;16.08;;
47219;SDS011;32961;51.936;4.788;2023-12-07T06:38:19;160.27;;;15.55;;
47219;SDS011;32961;51.936;4.788;2023-12-07T06:40:48;173.05;;;18.35;;
47219;SDS011;32961;51.936;4.788;2023-12-07T06:43:16;146.95;;;15.65;;
47219;SDS011;32961;51.936;4.788;2023-12-07T06:45:45;165.20;;;16.33;;
47219;SDS011;32961;51.936;4.788;2023-12-07T06:48:13;108.32;;;14.45;;
47219;SDS011;32961;51.936;4.788;2023-12-07T06:50:41;107.15;;;14.90;;
47219;SDS011;32961;51.936;4.788;2023-12-07T06:53:09;120.38;;;15.13;;
47219;SDS011;32961;51.936;4.788;2023-12-07T06:55:37;140.77;;;16.70;;
47219;SDS011;32961;51.936;4.788;2023-12-07T06:58:10;170.20;;;17.92;;
47219;SDS011;32961;51.936;4.788;2023-12-07T07:00:38;163.95;;;16.25;;
47219;SDS011;32961;51.936;4.788;2023-12-07T07:03:07;182.13;;;18.92;;
47219;SDS011;32961;51.936;4.788;2023-12-07T07:05:35;114.03;;;15.93;;
47219;SDS011;32961;51.936;4.788;2023-12-07T07:08:03;122.32;;;14.95;;
47219;SDS011;32961;51.936;4.788;2023-12-07T07:10:32;71.07;;;15.07;;
47219;SDS011;32961;51.936;4.788;2023-12-07T07:13:00;78.45;;;14.05;;
47219;SDS011;32961;51.936;4.788;2023-12-07T07:15:30;99.70;;;13.68;;
47219;SDS011;32961;51.936;4.788;2023-12-07T07:17:58;109.15;;;13.48;;
47219;SDS011;32961;51.936;4.788;2023-12-07T07:20:27;86.05;;;15.07;;
47219;SDS011;32961;51.936;4.788;2023-12-07T07:22:55;89.68;;;13.40;;
47219;SDS011;32961;51.936;4.788;2023-12-07T07:25:23;85.03;;;13.30;;
47219;SDS011;32961;51.936;4.788;2023-12-07T07:27:51;89.45;;;13.45;;
47219;SDS011;32961;51.936;4.788;2023-12-07T07:30:21;91.45;;;12.95;;
47219;SDS011;32961;51.936;4.788;2023-12-07T07:32:49;84.07;;;13.48;;
47219;SDS011;32961;51.936;4.788;2023-12-07T07:35:17;74.80;;;12.50;;
47219;SDS011;32961;51.936;4.788;2023-12-07T07:37:47;68.63;;;13.13;;
47219;SDS011;32961;51.936;4.788;2023-12-07T07:40:15;71.82;;;13.88;;
47219;SDS011;32961;51.936;4.788;2023-12-07T07:42:43;75.13;;;13.80;;
47219;SDS011;32961;51.936;4.788;2023-12-07T07:45:10;89.50;;;13.98;;
47219;SDS011;32961;51.936;4.788;2023-12-07T07:47:38;73.82;;;13.65;;
47219;SDS011;32961;51.936;4.788;2023-12-07T07:50:07;62.65;;;13.20;;
47219;SDS011;32961;51.936;4.788;2023-12-07T07:52:36;73.95;;;12.73;;
47219;SDS011;32961;51.936;4.788;2023-12-07T07:55:09;68.65;;;12.82;;
47219;SDS011;32961;51.936;4.788;2023-12-07T07:57:38;78.38;;;14.98;;
47219;SDS011;32961;51.936;4.788;2023-12-07T08:00:06;84.20;;;16.40;;
47219;SDS011;32961;51.936;4.788;2023-12-07T08:02:35;88.90;;;14.63;;
47219;SDS011;32961;51.936;4.788;2023-12-07T08:05:03;88.28;;;14.25;;
47219;SDS011;32961;51.936;4.788;2023-12-07T08:07:31;108.10;;;14.60;;
47219;SDS011;32961;51.936;4.788;2023-12-07T08:09:59;141.30;;;17.15;;
47219;SDS011;32961;51.936;4.788;2023-12-07T08:12:29;117.88;;;14.77;;
47219;SDS011;32961;51.936;4.788;2023-12-07T08:14:56;108.00;;;15.35;;
47219;SDS011;32961;51.936;4.788;2023-12-07T08:17:24;129.63;;;16.10;;
47219;SDS011;32961;51.936;4.788;2023-12-07T08:19:53;89.97;;;14.52;;
47219;SDS011;32961;51.936;4.788;2023-12-07T08:22:21;121.32;;;19.30;;
47219;SDS011;32961;51.936;4.788;2023-12-07T08:24:48;147.88;;;18.55;;
47219;SDS011;32961;51.936;4.788;2023-12-07T08:27:31;124.47;;;16.80;;
47219;SDS011;32961;51.936;4.788;2023-12-07T08:29:59;148.88;;;18.58;;
47219;SDS011;32961;51.936;4.788;2023-12-07T08:32:27;116.35;;;17.13;;
47219;SDS011;32961;51.936;4.788;2023-12-07T08:34:55;119.05;;;17.45;;
47219;SDS011;32961;51.936;4.788;2023-12-07T08:37:23;157.18;;;18.40;;
47219;SDS011;32961;51.936;4.788;2023-12-07T08:39:52;185.02;;;20.23;;
47219;SDS011;32961;51.936;4.788;2023-12-07T08:42:20;128.18;;;17.90;;
47219;SDS011;32961;51.936;4.788;2023-12-07T08:44:49;180.13;;;18.65;;
47219;SDS011;32961;51.936;4.788;2023-12-07T08:47:17;182.98;;;19.90;;
47219;SDS011;32961;51.936;4.788;2023-12-07T08:49:45;186.82;;;20.15;;
47219;SDS011;32961;51.936;4.788;2023-12-07T08:52:12;136.18;;;18.17;;
47219;SDS011;32961;51.936;4.788;2023-12-07T08:55:00;123.85;;;17.88;;
47219;SDS011;32961;51.936;4.788;2023-12-07T08:57:28;137.85;;;17.90;;
47219;SDS011;32961;51.936;4.788;2023-12-07T08:59:57;126.18;;;18.02;;
47219;SDS011;32961;51.936;4.788;2023-12-07T09:02:25;112.85;;;18.35;;
47219;SDS011;32961;51.936;4.788;2023-12-07T09:05:07;131.10;;;17.75;;
47219;SDS011;32961;51.936;4.788;2023-12-07T09:07:36;154.68;;;18.15;;
47219;SDS011;32961;51.936;4.788;2023-12-07T09:10:04;160.55;;;17.90;;
47219;SDS011;32961;51.936;4.788;2023-12-07T09:12:33;144.85;;;19.58;;
47219;SDS011;32961;51.936;4.788;2023-12-07T09:15:07;140.98;;;20.23;;
47219;SDS011;32961;51.936;4.788;2023-12-07T09:17:37;156.20;;;18.13;;
47219;SDS011;32961;51.936;4.788;2023-12-07T09:20:06;106.07;;;17.25;;
47219;SDS011;32961;51.936;4.788;2023-12-07T09:22:39;88.05;;;16.58;;
47219;SDS011;32961;51.936;4.788;2023-12-07T09:25:08;124.60;;;16.95;;
47219;SDS011;32961;51.936;4.788;2023-12-07T09:27:36;104.10;;;16.60;;
47219;SDS011;32961;51.936;4.788;2023-12-07T09:30:05;86.13;;;18.15;;
47219;SDS011;32961;51.936;4.788;2023-12-07T09:32:38;121.07;;;18.10;;
47219;SDS011;32961;51.936;4.788;2023-12-07T09:35:07;121.22;;;17.73;;
47219;SDS011;32961;51.936;4.788;2023-12-07T09:37:41;115.88;;;18.42;;
47219;SDS011;32961;51.936;4.788;2023-12-07T09:40:12;76.78;;;18.23;;
47219;SDS011;32961;51.936;4.788;2023-12-07T09:42:42;79.32;;;17.83;;
47219;SDS011;32961;51.936;4.788;2023-12-07T09:45:12;79.63;;;18.45;;
47219;SDS011;32961;51.936;4.788;2023-12-07T09:47:42;61.95;;;17.10;;
47219;SDS011;32961;51.936;4.788;2023-12-07T09:50:15;107.72;;;18.42;;
47219;SDS011;32961;51.936;4.788;2023-12-07T09:52:44;85.85;;;18.17;;
47219;SDS011;32961;51.936;4.788;2023-12-07T09:55:25;131.75;;;19.55;;
47219;SDS011;32961;51.936;4.788;2023-12-07T09:57:53;121.97;;;19.60;;
47219;SDS011;32961;51.936;4.788;2023-12-07T10:00:25;78.53;;;20.48;;
47219;SDS011;32961;51.936;4.788;2023-12-07T10:02:53;76.95;;;18.10;;
47219;SDS011;32961;51.936;4.788;2023-12-07T10:05:21;87.20;;;18.05;;
47219;SDS011;32961;51.936;4.788;2023-12-07T10:07:50;95.45;;;18.50;;
47219;SDS011;32961;51.936;4.788;2023-12-07T10:10:18;105.78;;;19.02;;
47219;SDS011;32961;51.936;4.788;2023-12-07T10:12:46;68.88;;;19.05;;
47219;SDS011;32961;51.936;4.788;2023-12-07T10:15:18;84.82;;;20.27;;
47219;SDS011;32961;51.936;4.788;2023-12-07T10:17:49;63.60;;;20.27;;
47219;SDS011;32961;51.936;4.788;2023-12-07T10:20:19;72.95;;;22.38;;
47219;SDS011;32961;51.936;4.788;2023-12-07T10:23:00;81.97;;;22.70;;
47219;SDS011;32961;51.936;4.788;2023-12-07T10:25:30;104.15;;;24.35;;
47219;SDS011;32961;51.936;4.788;2023-12-07T10:27:58;94.80;;;23.50;;
47219;SDS011;32961;51.936;4.788;2023-12-07T10:30:33;92.05;;;25.38;;
47219;SDS011;32961;51.936;4.788;2023-12-07T10:33:04;82.28;;;25.55;;
47219;SDS011;32961;51.936;4.788;2023-12-07T10:35:33;88.97;;;25.30;;
47219;SDS011;32961;51.936;4.788;2023-12-07T10:38:05;89.82;;;26.98;;
47219;SDS011;32961;51.936;4.788;2023-12-07T10:40:33;105.10;;;28.67;;
47219;SDS011;32961;51.936;4.788;2023-12-07T10:43:02;81.15;;;24.98;;
47219;SDS011;32961;51.936;4.788;2023-12-07T10:45:33;75.22;;;24.30;;
47219;SDS011;32961;51.936;4.788;2023-12-07T10:48:02;74.63;;;24.48;;
47219;SDS011;32961;51.936;4.788;2023-12-07T10:50:34;88.38;;;25.85;;
47219;SDS011;32961;51.936;4.788;2023-12-07T10:53:05;66.28;;;24.98;;
47219;SDS011;32961;51.936;4.788;2023-12-07T10:55:38;78.38;;;25.20;;
47219;SDS011;32961;51.936;4.788;2023-12-07T11:00:42;89.13;;;25.25;;
47219;SDS011;32961;51.936;4.788;2023-12-07T11:03:15;68.88;;;22.92;;
47219;SDS011;32961;51.936;4.788;2023-12-07T11:05:45;67.93;;;23.23;;
47219;SDS011;32961;51.936;4.788;2023-12-07T11:08:16;58.05;;;21.92;;
47219;SDS011;32961;51.936;4.788;2023-12-07T11:10:50;62.17;;;22.73;;
47219;SDS011;32961;51.936;4.788;2023-12-07T11:13:30;53.53;;;20.70;;
47219;SDS011;32961;51.936;4.788;2023-12-07T11:15:59;52.97;;;21.63;;
47219;SDS011;32961;51.936;4.788;2023-12-07T11:18:29;48.83;;;21.10;;
47219;SDS011;32961;51.936;4.788;2023-12-07T11:20:57;47.97;;;22.00;;
47219;SDS011;32961;51.936;4.788;2023-12-07T11:23:26;47.58;;;20.92;;
47219;SDS011;32961;51.936;4.788;2023-12-07T11:25:54;52.83;;;22.40;;
47219;SDS011;32961;51.936;4.788;2023-12-07T11:28:33;47.28;;;22.00;;
47219;SDS011;32961;51.936;4.788;2023-12-07T11:31:04;53.72;;;21.65;;
47219;SDS011;32961;51.936;4.788;2023-12-07T11:33:35;48.38;;;21.92;;
47219;SDS011;32961;51.936;4.788;2023-12-07T11:36:08;58.42;;;23.42;;
47219;SDS011;32961;51.936;4.788;2023-12-07T11:38:37;47.35;;;22.85;;
47219;SDS011;32961;51.936;4.788;2023-12-07T11:41:06;48.20;;;23.75;;
47219;SDS011;32961;51.936;4.788;2023-12-07T11:43:40;45.88;;;21.60;;
47219;SDS011;32961;51.936;4.788;2023-12-07T11:46:12;46.30;;;20.92;;
47219;SDS011;32961;51.936;4.788;2023-12-07T11:48:49;45.03;;;20.67;;
47219;SDS011;32961;51.936;4.788;2023-12-07T11:51:17;45.30;;;20.25;;
47219;SDS011;32961;51.936;4.788;2023-12-07T11:53:45;42.08;;;20.52;;
47219;SDS011;32961;51.936;4.788;2023-12-07T11:56:15;39.90;;;20.30;;
47219;SDS011;32961;51.936;4.788;2023-12-07T11:58:46;37.63;;;20.35;;
47219;SDS011;32961;51.936;4.788;2023-12-07T12:01:16;36.25;;;19.85;;
47219;SDS011;32961;51.936;4.788;2023-12-07T12:03:44;44.17;;;22.02;;
47219;SDS011;32961;51.936;4.788;2023-12-07T12:06:13;39.25;;;20.98;;
47219;SDS011;32961;51.936;4.788;2023-12-07T12:08:41;47.45;;;21.38;;
47219;SDS011;32961;51.936;4.788;2023-12-07T12:11:10;42.80;;;21.13;;
47219;SDS011;32961;51.936;4.788;2023-12-07T12:13:38;45.38;;;20.63;;
47219;SDS011;32961;51.936;4.788;2023-12-07T12:16:06;46.50;;;21.85;;
47219;SDS011;32961;51.936;4.788;2023-12-07T12:18:35;36.13;;;19.60;;
47219;SDS011;32961;51.936;4.788;2023-12-07T12:21:11;38.75;;;19.23;;
47219;SDS011;32961;51.936;4.788;2023-12-07T12:23:40;41.15;;;18.02;;
47219;SDS011;32961;51.936;4.788;2023-12-07T12:26:10;41.40;;;19.08;;
47219;SDS011;32961;51.936;4.788;2023-12-07T12:28:39;35.75;;;18.27;;
47219;SDS011;32961;51.936;4.788;2023-12-07T12:31:10;41.45;;;18.52;;
47219;SDS011;32961;51.936;4.788;2023-12-07T12:33:39;33.78;;;17.15;;
47219;SDS011;32961;51.936;4.788;2023-12-07T12:36:08;36.88;;;19.17;;
47219;SDS011;32961;51.936;4.788;2023-12-07T12:38:37;36.78;;;18.75;;
47219;SDS011;32961;51.936;4.788;2023-12-07T12:41:11;34.97;;;18.23;;
47219;SDS011;32961;51.936;4.788;2023-12-07T12:43:40;30.92;;;17.20;;
47219;SDS011;32961;51.936;4.788;2023-12-07T12:46:09;34.55;;;18.50;;
47219;SDS011;32961;51.936;4.788;2023-12-07T12:48:51;36.67;;;18.90;;
47219;SDS011;32961;51.936;4.788;2023-12-07T12:51:21;35.80;;;18.40;;
47219;SDS011;32961;51.936;4.788;2023-12-07T12:53:51;33.28;;;18.17;;
47219;SDS011;32961;51.936;4.788;2023-12-07T12:56:21;36.90;;;18.20;;
47219;SDS011;32961;51.936;4.788;2023-12-07T12:58:50;31.70;;;17.67;;
47219;SDS011;32961;51.936;4.788;2023-12-07T13:01:18;32.95;;;19.33;;
47219;SDS011;32961;51.936;4.788;2023-12-07T13:03:47;34.38;;;19.73;;
47219;SDS011;32961;51.936;4.788;2023-12-07T13:06:15;41.45;;;19.60;;
47219;SDS011;32961;51.936;4.788;2023-12-07T13:08:44;33.60;;;17.90;;
47219;SDS011;32961;51.936;4.788;2023-12-07T13:11:14;32.75;;;18.55;;
47219;SDS011;32961;51.936;4.788;2023-12-07T13:13:44;32.60;;;19.55;;
47219;SDS011;32961;51.936;4.788;2023-12-07T13:16:14;38.97;;;21.42;;
47219;SDS011;32961;51.936;4.788;2023-12-07T13:18:43;36.63;;;19.13;;
47219;SDS011;32961;51.936;4.788;2023-12-07T13:21:11;40.45;;;21.40;;
47219;SDS011;32961;51.936;4.788;2023-12-07T13:23:41;37.05;;;20.00;;
47219;SDS011;32961;51.936;4.788;2023-12-07T13:26:12;33.35;;;18.92;;
47219;SDS011;32961;51.936;4.788;2023-12-07T13:28:44;36.35;;;19.50;;
47219;SDS011;32961;51.936;4.788;2023-12-07T13:31:12;33.72;;;18.50;;
47219;SDS011;32961;51.936;4.788;2023-12-07T13:33:40;34.38;;;19.52;;
47219;SDS011;32961;51.936;4.788;2023-12-07T13:36:20;33.85;;;18.23;;
47219;SDS011;32961;51.936;4.788;2023-12-07T13:38:50;33.85;;;20.00;;
47219;SDS011;32961;51.936;4.788;2023-12-07T13:41:18;35.45;;;19.42;;
47219;SDS011;32961;51.936;4.788;2023-12-07T13:43:48;29.60;;;18.02;;
47219;SDS011;32961;51.936;4.788;2023-12-07T13:46:16;33.50;;;18.85;;
47219;SDS011;32961;51.936;4.788;2023-12-07T13:48:45;35.95;;;19.13;;
47219;SDS011;32961;51.936;4.788;2023-12-07T13:51:13;37.55;;;21.45;;
47219;SDS011;32961;51.936;4.788;2023-12-07T13:53:41;34.72;;;19.38;;
47219;SDS011;32961;51.936;4.788;2023-12-07T13:56:09;28.80;;;17.10;;
47219;SDS011;32961;51.936;4.788;2023-12-07T13:58:37;36.45;;;18.77;;
47219;SDS011;32961;51.936;4.788;2023-12-07T14:01:07;38.90;;;18.75;;
47219;SDS011;32961;51.936;4.788;2023-12-07T14:03:35;31.95;;;18.63;;
47219;SDS011;32961;51.936;4.788;2023-12-07T14:06:03;28.65;;;17.80;;
47219;SDS011;32961;51.936;4.788;2023-12-07T14:08:43;39.30;;;18.75;;
47219;SDS011;32961;51.936;4.788;2023-12-07T14:11:11;39.33;;;20.42;;
47219;SDS011;32961;51.936;4.788;2023-12-07T14:13:40;33.22;;;19.58;;
47219;SDS011;32961;51.936;4.788;2023-12-07T14:16:09;29.48;;;19.13;;
47219;SDS011;32961;51.936;4.788;2023-12-07T14:18:48;33.53;;;19.45;;
47219;SDS011;32961;51.936;4.788;2023-12-07T14:21:34;30.90;;;18.92;;
47219;SDS011;32961;51.936;4.788;2023-12-07T14:24:07;33.45;;;19.05;;
47219;SDS011;32961;51.936;4.788;2023-12-07T14:26:35;34.90;;;20.35;;
47219;SDS011;32961;51.936;4.788;2023-12-07T14:29:03;27.83;;;18.77;;
47219;SDS011;32961;51.936;4.788;2023-12-07T14:31:33;31.33;;;18.55;;
47219;SDS011;32961;51.936;4.788;2023-12-07T14:34:03;29.45;;;18.67;;
47219;SDS011;32961;51.936;4.788;2023-12-07T14:36:31;32.40;;;19.17;;